createdAt,value
2019-05-29T00:50:22.951Z,65.20
2019-05-29T00:52:48.983Z,65.50
2019-05-29T00:55:16.742Z,65.60
2019-05-29T00:57:43.027Z,65.70
2019-05-29T01:00:11.093Z,65.80
2019-05-29T01:02:37.383Z,65.80
2019-05-29T01:05:05.610Z,66.10
2019-05-29T01:07:31.910Z,66.20
2019-05-29T01:09:57.950Z,66.20
2019-05-29T01:12:23.961Z,67.30
2019-05-29T01:14:50.733Z,66.60
2019-05-29T01:17:17.661Z,66.70
2019-05-29T01:19:44.104Z,66.90
2019-05-29T01:22:10.109Z,67.00
2019-05-29T01:24:36.154Z,67.10
2019-05-29T01:27:02.182Z,67.90
2019-05-29T01:29:28.194Z,67.50
2019-05-29T01:31:54.209Z,67.60
2019-05-29T01:34:20.227Z,67.80
2019-05-29T01:36:46.346Z,68.00
2019-05-29T01:39:12.363Z,68.20
2019-05-29T01:41:38.395Z,68.30
2019-05-29T01:44:04.510Z,68.40
2019-05-29T01:46:30.529Z,68.50
2019-05-29T01:48:56.534Z,68.70
2019-05-29T01:51:23.555Z,68.70
2019-05-29T01:53:50.130Z,68.80
2019-05-29T01:56:16.249Z,68.90
2019-05-29T01:58:42.250Z,69.10
2019-05-29T02:01:08.273Z,69.10
2019-05-29T02:03:34.309Z,69.10
2019-05-29T02:06:00.333Z,69.20
2019-05-29T02:08:26.342Z,69.20
2019-05-29T02:10:52.359Z,69.20
2019-05-29T02:13:19.443Z,69.30
2019-05-29T02:15:45.829Z,69.20
2019-05-29T02:18:11.855Z,69.30
2019-05-29T02:20:37.869Z,69.40
2019-05-29T02:23:03.885Z,69.50
2019-05-29T02:25:30.145Z,69.60
2019-05-29T02:27:56.168Z,69.80
2019-05-29T02:30:23.585Z,69.80
2019-05-29T02:32:50.405Z,69.80
2019-05-29T02:35:17.777Z,69.90
2019-05-29T02:37:44.142Z,70.00
2019-05-29T02:40:10.556Z,70.00
2019-05-29T02:42:36.806Z,69.90
2019-05-29T02:45:05.956Z,69.90
2019-05-29T02:47:31.966Z,69.80
2019-05-29T02:49:57.983Z,70.00
2019-05-29T02:52:24.314Z,70.00
2019-05-29T02:54:50.426Z,70.20
2019-05-29T02:57:16.452Z,70.30
2019-05-29T02:59:42.467Z,70.40
2019-05-29T03:02:09.135Z,70.40
2019-05-29T03:04:35.166Z,70.40
2019-05-29T03:07:01.259Z,70.60
2019-05-29T03:09:28.407Z,70.80
2019-05-29T03:11:54.908Z,71.20
2019-05-29T03:14:20.935Z,71.10
2019-05-29T03:16:46.984Z,71.20
2019-05-29T03:19:12.990Z,71.10
2019-05-29T03:21:39.319Z,71.60
2019-05-29T03:24:05.349Z,70.90
2019-05-29T03:26:32.916Z,70.90
2019-05-29T03:28:59.271Z,71.00
2019-05-29T03:31:30.075Z,71.10
2019-05-29T03:33:53.220Z,71.10
2019-05-29T03:36:19.241Z,71.20
2019-05-29T03:38:45.359Z,71.30
2019-05-29T03:41:11.369Z,71.40
2019-05-29T03:43:38.784Z,71.50
2019-05-29T03:46:05.024Z,71.60
2019-05-29T03:48:32.405Z,71.60
2019-05-29T03:50:58.991Z,71.80
2019-05-29T03:53:25.006Z,72.00
2019-05-29T03:55:51.020Z,72.00
2019-05-29T03:58:17.053Z,72.30
2019-05-29T04:00:46.417Z,72.40
2019-05-29T04:03:11.532Z,72.40
2019-05-29T04:05:37.964Z,72.60
2019-05-29T04:08:04.275Z,72.70
2019-05-29T04:10:34.155Z,72.90
2019-05-29T04:12:59.368Z,73.80
2019-05-29T04:15:25.383Z,73.10
2019-05-29T04:17:51.742Z,73.10
2019-05-29T04:20:17.846Z,73.20
2019-05-29T04:22:43.969Z,73.30
2019-05-29T04:25:11.500Z,73.40
2019-05-29T04:27:40.014Z,73.40
2019-05-29T04:30:07.086Z,73.60
2019-05-29T04:32:34.234Z,73.50
2019-05-29T04:35:00.415Z,73.60
2019-05-29T04:37:26.486Z,73.60
2019-05-29T04:39:52.616Z,73.60
2019-05-29T04:42:18.718Z,73.60
2019-05-29T04:44:44.759Z,73.50
2019-05-29T04:47:12.234Z,73.40
2019-05-29T04:49:39.886Z,73.20
2019-05-29T04:52:06.085Z,73.00
2019-05-29T04:54:33.362Z,72.90
2019-05-29T04:56:59.501Z,72.70
2019-05-29T04:59:25.527Z,72.50
2019-05-29T05:01:51.529Z,72.70
2019-05-29T05:04:17.567Z,71.90
2019-05-29T05:06:43.594Z,71.70
2019-05-29T05:09:09.618Z,71.80
2019-05-29T05:11:35.632Z,72.30
2019-05-29T05:14:03.356Z,71.80
2019-05-29T05:16:29.707Z,71.90
2019-05-29T05:18:55.883Z,71.90
2019-05-29T05:21:21.896Z,71.80
2019-05-29T05:23:47.954Z,71.50
2019-05-29T05:26:13.966Z,71.20
2019-05-29T05:28:44.091Z,70.70
2019-05-29T05:31:07.930Z,70.00
2019-05-29T05:33:34.510Z,69.30
2019-05-29T05:36:00.565Z,69.00
2019-05-29T05:38:26.598Z,68.20
2019-05-29T05:40:52.606Z,68.30
2019-05-29T05:43:24.105Z,66.20
2019-05-29T05:45:46.557Z,64.90
2019-05-29T05:48:12.583Z,64.00
2019-05-29T05:50:39.435Z,63.00
2019-05-29T05:53:05.548Z,62.00
2019-05-29T05:55:37.776Z,60.30
2019-05-29T05:58:04.215Z,59.20
2019-05-29T06:00:33.804Z,56.60
2019-05-29T06:03:00.085Z,57.00
2019-05-29T06:05:32.060Z,56.60
2019-05-29T06:07:58.266Z,56.20
2019-05-29T06:10:24.278Z,53.90
2019-05-29T06:12:50.314Z,53.40
2019-05-29T06:15:16.427Z,51.90
2019-05-29T06:18:00.575Z,51.50
2019-05-29T06:20:11.044Z,51.70
2019-05-29T06:22:37.063Z,49.20
2019-05-29T06:25:04.667Z,50.10
2019-05-29T06:27:30.683Z,50.20
2019-05-29T06:29:56.697Z,48.80
2019-05-29T06:32:22.732Z,49.40
2019-05-29T06:34:48.751Z,49.10
2019-05-29T06:37:14.765Z,47.90
2019-05-29T06:39:41.783Z,45.60
2019-05-29T06:42:07.898Z,47.60
2019-05-29T06:44:34.359Z,47.10
2019-05-29T06:47:00.637Z,48.00
2019-05-29T06:49:26.704Z,46.70
2019-05-29T06:51:52.730Z,47.20
2019-05-29T06:54:18.730Z,47.30
2019-05-29T06:56:44.756Z,46.70
2019-05-29T06:59:10.777Z,46.80
2019-05-29T07:01:37.407Z,46.70
2019-05-29T07:04:11.754Z,45.90
2019-05-29T07:06:31.450Z,44.40
2019-05-29T07:08:57.461Z,41.00
2019-05-29T07:11:23.486Z,42.90
2019-05-29T07:13:50.525Z,42.70
2019-05-29T07:16:17.027Z,43.50
2019-05-29T07:19:22.422Z,43.40
2019-05-29T07:21:11.031Z,43.00
2019-05-29T07:23:37.085Z,42.70
2019-05-29T07:26:03.948Z,42.80
2019-05-29T07:28:29.955Z,42.20
2019-05-29T07:31:01.569Z,40.80
2019-05-29T07:33:23.916Z,40.90
2019-05-29T07:35:50.027Z,39.90
2019-05-29T07:38:16.143Z,39.30
2019-05-29T07:40:42.680Z,39.40
2019-05-29T07:43:10.408Z,39.90
2019-05-29T07:45:37.751Z,40.20
2019-05-29T07:48:04.186Z,40.60
2019-05-29T07:50:30.201Z,40.80
2019-05-29T07:52:56.251Z,40.60
2019-05-29T07:55:23.793Z,40.30
2019-05-29T07:57:49.989Z,39.90
2019-05-29T08:00:16.621Z,39.70
2019-05-29T08:02:43.341Z,38.30
2019-05-29T08:05:10.341Z,37.60
2019-05-29T08:07:36.636Z,37.40
2019-05-29T08:10:06.278Z,36.90
2019-05-29T08:12:32.290Z,35.10
2019-05-29T08:14:58.305Z,34.70
2019-05-29T08:17:24.647Z,33.90
2019-05-29T08:20:03.257Z,34.30
2019-05-29T08:22:33.374Z,34.40
2019-05-29T08:24:48.093Z,34.60
2019-05-29T08:27:14.679Z,34.60
2019-05-29T08:29:40.699Z,34.10
2019-05-29T08:32:06.751Z,33.30
2019-05-29T08:34:32.761Z,33.00
2019-05-29T08:37:06.575Z,33.40
2019-05-29T08:39:36.101Z,33.60
2019-05-29T08:42:17.445Z,33.00
2019-05-29T08:44:22.609Z,32.70
2019-05-29T08:47:04.230Z,32.60
2019-05-29T08:49:16.571Z,32.60
2019-05-29T08:51:43.816Z,32.60
2019-05-29T08:54:23.455Z,32.40
2019-05-29T08:56:37.924Z,31.90
2019-05-29T08:59:03.951Z,32.20
2019-05-29T09:01:29.954Z,32.40
2019-05-29T09:03:55.970Z,32.30
2019-05-29T09:06:22.013Z,31.40
2019-05-29T09:08:48.542Z,31.60
2019-05-29T09:11:15.954Z,31.50
2019-05-29T09:13:41.978Z,30.50
2019-05-29T09:16:07.990Z,29.70
2019-05-29T09:18:34.015Z,28.20
2019-05-29T09:21:03.390Z,27.40
2019-05-29T09:23:27.977Z,27.50
2019-05-29T09:25:54.067Z,27.70
2019-05-29T09:28:20.861Z,28.30
2019-05-29T09:30:47.994Z,28.80
2019-05-29T09:33:16.267Z,29.30
2019-05-29T09:35:42.222Z,29.70
2019-05-29T09:38:08.479Z,29.30
2019-05-29T09:40:34.479Z,29.40
2019-05-29T09:43:00.511Z,26.30
2019-05-29T09:45:26.526Z,27.80
2019-05-29T09:47:52.541Z,27.60
2019-05-29T09:50:20.733Z,27.40
2019-05-29T09:52:47.029Z,27.00
2019-05-29T09:55:13.613Z,27.20
2019-05-29T09:57:39.633Z,27.70
2019-05-29T10:00:08.351Z,27.80
2019-05-29T10:02:34.370Z,28.00
2019-05-29T10:05:01.099Z,27.80
2019-05-29T10:07:28.499Z,27.40
2019-05-29T10:09:55.649Z,27.60
2019-05-29T10:12:22.542Z,27.90
2019-05-29T10:14:51.326Z,27.70
2019-05-29T10:17:16.598Z,27.80
2019-05-29T10:19:42.687Z,27.90
2019-05-29T10:22:08.720Z,27.70
2019-05-29T10:24:34.735Z,27.50
2019-05-29T10:27:04.548Z,27.70
2019-05-29T10:29:30.934Z,28.10
2019-05-29T10:31:56.939Z,28.20
2019-05-29T10:34:22.962Z,28.20
2019-05-29T10:36:52.681Z,28.30
2019-05-29T10:39:16.923Z,28.10
2019-05-29T10:41:43.152Z,26.60
2019-05-29T10:44:12.647Z,27.10
2019-05-29T10:46:37.110Z,26.80
2019-05-29T10:49:04.780Z,26.80
2019-05-29T10:51:31.146Z,26.60
2019-05-29T10:53:58.823Z,27.10
2019-05-29T10:56:25.108Z,27.30
2019-05-29T10:58:56.188Z,27.40
2019-05-29T11:01:19.089Z,27.10
2019-05-29T11:03:45.556Z,26.50
2019-05-29T11:06:11.618Z,26.60
2019-05-29T11:08:37.959Z,27.10
2019-05-29T11:11:03.962Z,27.10
2019-05-29T11:13:29.983Z,27.20
2019-05-29T11:15:56.916Z,28.00
2019-05-29T11:18:22.993Z,27.90
2019-05-29T11:20:49.411Z,27.40
2019-05-29T11:23:15.705Z,27.60
2019-05-29T11:25:41.742Z,27.60
2019-05-29T11:28:07.757Z,27.90
2019-05-29T11:30:33.783Z,27.10
2019-05-29T11:33:01.365Z,26.80
2019-05-29T11:35:32.626Z,27.00
2019-05-29T11:37:59.018Z,27.50
2019-05-29T11:40:25.121Z,27.60
2019-05-29T11:42:51.200Z,27.40
2019-05-29T11:45:18.178Z,27.40
2019-05-29T11:47:44.809Z,27.40
2019-05-29T11:50:19.184Z,27.50
2019-05-29T11:52:42.923Z,27.70
2019-05-29T11:55:08.530Z,28.00
2019-05-29T11:57:34.699Z,27.90
2019-05-29T12:00:09.599Z,27.30
2019-05-29T12:02:29.183Z,27.40
2019-05-29T12:04:55.242Z,27.10
2019-05-29T12:07:21.331Z,27.40
2019-05-29T12:09:47.385Z,27.20
2019-05-29T12:12:13.419Z,27.50
2019-05-29T12:14:59.155Z,27.00
2019-05-29T12:17:07.400Z,27.70
2019-05-29T12:19:33.442Z,28.00
2019-05-29T12:22:00.571Z,28.30
2019-05-29T12:24:26.725Z,28.20
2019-05-29T12:26:52.751Z,28.00
2019-05-29T12:29:18.784Z,27.60
2019-05-29T12:31:44.797Z,27.40
2019-05-29T12:34:18.733Z,26.70
2019-05-29T12:36:38.745Z,26.60
2019-05-29T12:39:05.851Z,26.60
2019-05-29T12:41:31.913Z,26.90
2019-05-29T12:43:57.926Z,26.90
2019-05-29T12:46:23.942Z,27.20
2019-05-29T12:48:49.975Z,27.50
2019-05-29T12:51:16.307Z,27.60
2019-05-29T12:53:42.306Z,27.50
2019-05-29T12:56:08.566Z,27.50
2019-05-29T12:58:34.598Z,27.60
2019-05-29T13:01:00.832Z,27.80
2019-05-29T13:03:27.488Z,28.00
2019-05-29T13:05:54.154Z,28.00
2019-05-29T13:08:20.343Z,28.20
2019-05-29T13:10:46.378Z,28.00
2019-05-29T13:13:12.384Z,27.70
2019-05-29T13:15:38.486Z,27.90
2019-05-29T13:18:09.469Z,28.30
2019-05-29T13:20:32.739Z,28.50
2019-05-29T13:22:59.703Z,28.50
2019-05-29T13:25:25.995Z,28.50
2019-05-29T13:27:52.035Z,28.60
2019-05-29T13:30:20.046Z,28.90
2019-05-29T13:32:46.088Z,29.00
2019-05-29T13:35:14.211Z,29.00
2019-05-29T13:37:40.323Z,29.10
2019-05-29T13:40:08.547Z,29.20
2019-05-29T13:42:34.867Z,29.20
2019-05-29T13:45:11.031Z,29.50
2019-05-29T13:47:29.822Z,29.70
2019-05-29T13:49:56.991Z,29.80
2019-05-29T13:52:23.439Z,29.80
2019-05-29T13:54:49.458Z,29.80
2019-05-29T13:57:15.581Z,29.70
2019-05-29T13:59:41.635Z,29.50
2019-05-29T14:02:08.676Z,29.50
2019-05-29T14:04:35.908Z,29.90
2019-05-29T14:07:03.399Z,30.00
2019-05-29T14:09:29.857Z,30.00
2019-05-29T14:11:55.867Z,30.00
2019-05-29T14:14:21.897Z,30.10
2019-05-29T14:16:47.911Z,30.20
2019-05-29T14:19:13.954Z,30.00
2019-05-29T14:21:39.974Z,30.30
2019-05-29T14:24:23.466Z,30.30
2019-05-29T14:26:34.053Z,30.60
2019-05-29T14:29:01.359Z,31.00
2019-05-29T14:31:28.099Z,29.80
2019-05-29T14:33:54.113Z,29.20
2019-05-29T14:36:20.141Z,29.30
2019-05-29T14:38:46.173Z,29.60
2019-05-29T14:41:12.203Z,29.80
2019-05-29T14:43:38.227Z,30.20
2019-05-29T14:46:04.255Z,29.70
2019-05-29T14:48:30.266Z,29.60
2019-05-29T14:50:56.328Z,29.50
2019-05-29T14:53:22.413Z,29.50
2019-05-29T14:55:48.435Z,29.80
2019-05-29T14:58:14.477Z,29.90
2019-05-29T15:00:40.558Z,29.40
2019-05-29T15:03:07.347Z,29.00
2019-05-29T15:05:33.676Z,28.80
2019-05-29T15:07:59.697Z,29.20
2019-05-29T15:10:27.899Z,29.20
2019-05-29T15:12:57.784Z,28.80
2019-05-29T15:15:23.082Z,28.70
2019-05-29T15:17:49.434Z,28.80
2019-05-29T15:20:16.953Z,29.00
2019-05-29T15:22:43.185Z,28.90
2019-05-29T15:25:18.457Z,29.10
2019-05-29T15:27:37.630Z,29.30
2019-05-29T15:30:06.154Z,29.40
2019-05-29T15:32:32.229Z,29.30
2019-05-29T15:34:58.231Z,29.20
2019-05-29T15:37:24.541Z,29.10
2019-05-29T15:39:50.610Z,29.20
2019-05-29T15:42:16.995Z,29.30
2019-05-29T15:44:43.150Z,29.40
2019-05-29T15:47:09.190Z,29.60
2019-05-29T15:49:35.217Z,29.70
2019-05-29T15:52:01.252Z,29.80
2019-05-29T15:54:27.325Z,29.70
2019-05-29T15:56:53.485Z,29.60
2019-05-29T15:59:19.509Z,29.50
2019-05-29T16:01:45.542Z,29.20
2019-05-29T16:04:11.756Z,29.20
2019-05-29T16:06:37.781Z,29.20
2019-05-29T16:09:08.070Z,29.10
2019-05-29T16:11:34.927Z,29.10
2019-05-29T16:14:00.957Z,29.00
2019-05-29T16:16:27.084Z,29.00
2019-05-29T16:18:53.105Z,28.90
2019-05-29T16:21:19.125Z,28.90
2019-05-29T16:23:45.141Z,29.10
2019-05-29T16:26:11.149Z,29.10
2019-05-29T16:28:37.170Z,29.90
2019-05-29T16:31:03.295Z,29.50
2019-05-29T16:33:29.333Z,29.70
2019-05-29T16:35:55.360Z,29.80
2019-05-29T16:38:21.867Z,29.90
2019-05-29T16:40:48.012Z,30.00
2019-05-29T16:43:14.047Z,29.90
2019-05-29T16:45:40.048Z,29.90
2019-05-29T16:48:06.091Z,29.80
2019-05-29T16:50:32.111Z,29.80
2019-05-29T16:52:58.150Z,29.90
2019-05-29T16:55:24.212Z,29.80
2019-05-29T16:57:50.375Z,29.60
2019-05-29T17:00:17.666Z,29.70
2019-05-29T17:02:43.858Z,29.70
2019-05-29T17:05:11.575Z,29.60
2019-05-29T17:07:37.598Z,30.10
2019-05-29T17:10:05.018Z,29.70
2019-05-29T17:12:31.073Z,29.70
2019-05-29T17:14:57.092Z,29.70
2019-05-29T17:17:23.153Z,29.70
2019-05-29T17:19:49.182Z,29.80
2019-05-29T17:22:16.476Z,29.90
2019-05-29T17:24:42.716Z,29.90
2019-05-29T17:27:09.027Z,29.90
2019-05-29T17:29:35.394Z,30.00
2019-05-29T17:32:01.557Z,30.00
2019-05-29T17:34:27.778Z,30.10
2019-05-29T17:36:53.863Z,30.10
2019-05-29T17:39:21.115Z,30.40
2019-05-29T17:41:47.478Z,30.50
2019-05-29T17:44:15.361Z,30.70
2019-05-29T17:46:41.725Z,30.90
2019-05-29T17:49:07.774Z,31.10
2019-05-29T17:51:33.825Z,31.20
2019-05-29T17:53:59.919Z,31.40
2019-05-29T17:56:36.028Z,31.50
2019-05-29T17:58:54.198Z,31.60
2019-05-29T18:01:20.228Z,31.80
2019-05-29T18:03:46.251Z,31.70
2019-05-29T18:06:12.267Z,31.90
2019-05-29T18:08:38.475Z,32.10
2019-05-29T18:11:04.946Z,32.10
2019-05-29T18:13:31.853Z,32.20
2019-05-29T18:15:57.945Z,32.30
2019-05-29T18:18:24.141Z,32.50
2019-05-29T18:20:50.170Z,32.60
2019-05-29T18:23:17.419Z,32.80
2019-05-29T18:25:43.618Z,33.00
2019-05-29T18:28:09.654Z,33.20
2019-05-29T18:30:35.771Z,33.30
2019-05-29T18:33:01.800Z,33.40
2019-05-29T18:35:28.985Z,33.50
2019-05-29T18:37:55.243Z,33.80
2019-05-29T18:40:22.297Z,34.00
2019-05-29T18:42:48.545Z,34.20
2019-05-29T18:45:20.943Z,34.30
2019-05-29T18:47:43.165Z,34.40
2019-05-29T18:50:11.291Z,34.50
2019-05-29T18:52:37.294Z,34.70
2019-05-29T18:55:05.141Z,34.90
2019-05-29T18:57:31.221Z,35.10
2019-05-29T18:59:57.262Z,35.40
2019-05-29T19:02:23.362Z,35.60
2019-05-29T19:04:49.441Z,35.80
2019-05-29T19:07:15.548Z,36.00
2019-05-29T19:09:41.576Z,36.30
2019-05-29T19:12:07.583Z,36.50
2019-05-29T19:14:33.615Z,36.90
2019-05-29T19:16:59.655Z,37.20
2019-05-29T19:19:26.165Z,37.40
2019-05-29T19:21:52.323Z,38.00
2019-05-29T19:24:18.369Z,38.20
2019-05-29T19:26:44.458Z,38.40
2019-05-29T19:29:10.466Z,38.60
2019-05-29T19:31:36.495Z,38.80
2019-05-29T19:34:02.756Z,39.00
2019-05-29T19:36:29.850Z,39.90
2019-05-29T19:38:56.086Z,39.50
2019-05-29T19:41:22.114Z,39.70
2019-05-29T19:43:48.128Z,40.00
2019-05-29T19:46:14.143Z,40.20
2019-05-29T19:48:40.154Z,40.30
2019-05-29T19:51:06.566Z,40.50
2019-05-29T19:53:33.508Z,40.60
2019-05-29T19:55:59.811Z,41.10
2019-05-29T19:58:25.926Z,41.00
2019-05-29T20:00:51.995Z,41.30
2019-05-29T20:03:20.097Z,41.50
2019-05-29T20:05:45.938Z,41.60
2019-05-29T20:08:11.962Z,41.70
2019-05-29T20:10:38.051Z,41.80
2019-05-29T20:13:04.092Z,41.80
2019-05-29T20:15:30.120Z,42.00
2019-05-29T20:17:56.130Z,42.00
2019-05-29T20:20:22.144Z,42.00
2019-05-29T20:22:48.252Z,42.20
2019-05-29T20:25:14.375Z,42.30
2019-05-29T20:27:40.398Z,42.50
2019-05-29T20:30:15.089Z,42.60
2019-05-29T20:32:41.181Z,42.80
2019-05-29T20:35:07.364Z,43.70
2019-05-29T20:37:34.073Z,43.00
2019-05-29T20:40:00.260Z,43.10
2019-05-29T20:42:26.288Z,43.20
2019-05-29T20:44:52.324Z,43.30
2019-05-29T20:47:18.376Z,43.30
2019-05-29T20:49:47.409Z,43.40
2019-05-29T20:52:12.435Z,43.40
2019-05-29T20:54:39.686Z,43.50
2019-05-29T20:57:12.155Z,43.50
2019-05-29T20:59:39.954Z,43.70
2019-05-29T21:02:06.169Z,43.70
2019-05-29T21:04:33.030Z,43.80
2019-05-29T21:06:59.524Z,43.90
2019-05-29T21:09:25.533Z,43.90
2019-05-29T21:11:51.603Z,43.80
2019-05-29T21:14:17.624Z,43.90
2019-05-29T21:16:44.003Z,44.70
2019-05-29T21:19:10.201Z,44.10
2019-05-29T21:21:36.343Z,44.80
2019-05-29T21:24:02.655Z,44.10
2019-05-29T21:26:28.820Z,44.30
2019-05-29T21:28:54.849Z,44.20
2019-05-29T21:31:20.867Z,44.50
2019-05-29T21:33:49.198Z,44.70
2019-05-29T21:36:15.028Z,44.80
2019-05-29T21:38:42.229Z,45.10
2019-05-29T21:41:08.520Z,45.20
2019-05-29T21:43:34.542Z,45.40
2019-05-29T21:46:00.586Z,45.70
2019-05-29T21:48:26.640Z,46.00
2019-05-29T21:50:52.673Z,46.30
2019-05-29T21:53:18.854Z,46.60
2019-05-29T21:55:45.702Z,47.00
2019-05-29T21:58:11.910Z,47.00
2019-05-29T22:00:46.363Z,47.20
2019-05-29T22:03:12.371Z,47.40
2019-05-29T22:05:38.642Z,47.50
2019-05-29T22:08:04.665Z,47.60
2019-05-29T22:10:30.682Z,47.90
2019-05-29T22:12:56.689Z,48.10
2019-05-29T22:15:23.005Z,48.40
2019-05-29T22:17:49.135Z,48.30
2019-05-29T22:20:15.386Z,48.50
2019-05-29T22:22:41.691Z,48.80
2019-05-29T22:25:08.019Z,49.00
2019-05-29T22:27:35.273Z,49.10
2019-05-29T22:30:01.603Z,49.30
2019-05-29T22:32:27.708Z,49.60
2019-05-29T22:34:53.767Z,49.90
2019-05-29T22:37:19.783Z,50.10
2019-05-29T22:39:45.809Z,50.20
2019-05-29T22:42:11.858Z,50.80
2019-05-29T22:44:37.886Z,51.00
2019-05-29T22:47:03.947Z,51.40
2019-05-29T22:49:29.979Z,51.70
2019-05-29T22:51:56.049Z,52.20
2019-05-29T22:54:22.080Z,52.60
2019-05-29T22:56:48.116Z,53.00
2019-05-29T22:59:14.159Z,53.30
2019-05-29T23:01:40.204Z,53.60
2019-05-29T23:04:06.251Z,53.90
2019-05-29T23:06:32.281Z,54.10
2019-05-29T23:08:58.546Z,55.10
2019-05-29T23:11:24.610Z,54.70
2019-05-29T23:13:50.646Z,55.10
2019-05-29T23:16:16.674Z,56.20
2019-05-29T23:18:42.690Z,55.90
2019-05-29T23:21:08.717Z,56.20
2019-05-29T23:23:34.755Z,56.40
2019-05-29T23:26:01.125Z,56.60
2019-05-29T23:28:27.178Z,56.70
2019-05-29T23:30:53.254Z,57.00
2019-05-29T23:33:19.261Z,57.00
2019-05-29T23:35:45.266Z,57.20
2019-05-29T23:38:11.294Z,57.30
2019-05-29T23:40:37.304Z,57.40
2019-05-29T23:43:03.697Z,57.50
2019-05-29T23:45:29.906Z,57.60
2019-05-29T23:47:55.942Z,57.70
2019-05-29T23:50:22.070Z,57.70
2019-05-29T23:52:48.095Z,57.90
2019-05-29T23:55:14.119Z,58.00
2019-05-29T23:57:40.140Z,58.10
